sensor_id;sensor_type;location;lat;lon;timestamp;P1;durP1;ratioP1;P2;durP2;ratioP2
25721;SDS011;13578;53.450;15.496;2023-02-28T00:01:07;9.15;;;6.65;;
25721;SDS011;13578;53.450;15.496;2023-02-28T00:04:08;6.80;;;6.18;;
25721;SDS011;13578;53.450;15.496;2023-02-28T00:07:09;8.27;;;6.60;;
25721;SDS011;13578;53.450;15.496;2023-02-28T00:10:11;11.45;;;6.32;;
25721;SDS011;13578;53.450;15.496;2023-02-28T00:13:13;7.20;;;6.47;;
25721;SDS011;13578;53.450;15.496;2023-02-28T00:16:16;10.00;;;6.70;;
25721;SDS011;13578;53.450;15.496;2023-02-28T00:19:21;6.80;;;5.80;;
25721;SDS011;13578;53.450;15.496;2023-02-28T00:22:22;6.38;;;5.88;;
25721;SDS011;13578;53.450;15.496;2023-02-28T00:25:24;12.23;;;6.22;;
25721;SDS011;13578;53.450;15.496;2023-02-28T00:28:25;9.30;;;6.53;;
25721;SDS011;13578;53.450;15.496;2023-02-28T00:31:26;7.53;;;6.80;;
25721;SDS011;13578;53.450;15.496;2023-02-28T00:34:26;7.93;;;7.13;;
25721;SDS011;13578;53.450;15.496;2023-02-28T00:37:27;8.02;;;5.93;;
25721;SDS011;13578;53.450;15.496;2023-02-28T00:40:28;7.68;;;6.18;;
25721;SDS011;13578;53.450;15.496;2023-02-28T00:43:29;6.97;;;6.40;;
25721;SDS011;13578;53.450;15.496;2023-02-28T00:46:31;7.60;;;5.88;;
25721;SDS011;13578;53.450;15.496;2023-02-28T00:49:32;9.82;;;6.63;;
25721;SDS011;13578;53.450;15.496;2023-02-28T00:52:33;6.38;;;5.88;;
25721;SDS011;13578;53.450;15.496;2023-02-28T00:55:33;9.85;;;6.82;;
25721;SDS011;13578;53.450;15.496;2023-02-28T00:58:34;8.10;;;6.32;;
25721;SDS011;13578;53.450;15.496;2023-02-28T01:01:34;8.27;;;6.30;;
25721;SDS011;13578;53.450;15.496;2023-02-28T01:04:35;7.35;;;6.15;;
25721;SDS011;13578;53.450;15.496;2023-02-28T01:07:36;8.48;;;7.35;;
25721;SDS011;13578;53.450;15.496;2023-02-28T01:10:36;7.68;;;7.00;;
25721;SDS011;13578;53.450;15.496;2023-02-28T01:13:38;8.52;;;6.63;;
25721;SDS011;13578;53.450;15.496;2023-02-28T01:16:40;9.15;;;7.32;;
25721;SDS011;13578;53.450;15.496;2023-02-28T01:19:41;7.75;;;6.90;;
25721;SDS011;13578;53.450;15.496;2023-02-28T01:22:42;7.22;;;6.60;;
25721;SDS011;13578;53.450;15.496;2023-02-28T01:25:42;13.43;;;8.27;;
25721;SDS011;13578;53.450;15.496;2023-02-28T01:28:43;11.63;;;7.03;;
25721;SDS011;13578;53.450;15.496;2023-02-28T01:31:44;9.82;;;7.15;;
25721;SDS011;13578;53.450;15.496;2023-02-28T01:34:45;10.18;;;8.27;;
25721;SDS011;13578;53.450;15.496;2023-02-28T01:37:46;9.55;;;7.38;;
25721;SDS011;13578;53.450;15.496;2023-02-28T01:40:46;9.95;;;7.75;;
25721;SDS011;13578;53.450;15.496;2023-02-28T01:46:48;7.80;;;7.00;;
25721;SDS011;13578;53.450;15.496;2023-02-28T01:49:48;17.80;;;7.88;;
25721;SDS011;13578;53.450;15.496;2023-02-28T01:52:51;10.27;;;7.00;;
25721;SDS011;13578;53.450;15.496;2023-02-28T01:55:56;11.10;;;8.55;;
25721;SDS011;13578;53.450;15.496;2023-02-28T01:58:58;8.57;;;6.70;;
25721;SDS011;13578;53.450;15.496;2023-02-28T02:01:58;9.13;;;6.90;;
25721;SDS011;13578;53.450;15.496;2023-02-28T02:05:03;18.67;;;8.13;;
25721;SDS011;13578;53.450;15.496;2023-02-28T02:08:17;11.82;;;8.65;;
25721;SDS011;13578;53.450;15.496;2023-02-28T02:11:21;14.35;;;8.18;;
25721;SDS011;13578;53.450;15.496;2023-02-28T02:17:38;12.80;;;8.52;;
25721;SDS011;13578;53.450;15.496;2023-02-28T02:27:16;11.40;;;7.78;;
25721;SDS011;13578;53.450;15.496;2023-02-28T02:40:48;11.90;;;7.43;;
25721;SDS011;13578;53.450;15.496;2023-02-28T02:44:07;19.58;;;9.25;;
25721;SDS011;13578;53.450;15.496;2023-02-28T02:47:29;13.15;;;8.10;;
25721;SDS011;13578;53.450;15.496;2023-02-28T02:50:39;15.80;;;8.05;;
25721;SDS011;13578;53.450;15.496;2023-02-28T02:53:47;11.25;;;7.50;;
25721;SDS011;13578;53.450;15.496;2023-02-28T02:57:01;14.27;;;7.85;;
25721;SDS011;13578;53.450;15.496;2023-02-28T03:00:06;12.75;;;7.80;;
25721;SDS011;13578;53.450;15.496;2023-02-28T03:03:09;12.93;;;8.50;;
25721;SDS011;13578;53.450;15.496;2023-02-28T03:06:11;11.27;;;7.97;;
25721;SDS011;13578;53.450;15.496;2023-02-28T03:09:12;19.27;;;8.02;;
25721;SDS011;13578;53.450;15.496;2023-02-28T03:12:13;17.30;;;7.90;;
25721;SDS011;13578;53.450;15.496;2023-02-28T03:15:17;9.07;;;7.05;;
25721;SDS011;13578;53.450;15.496;2023-02-28T03:25:23;14.90;;;8.38;;
25721;SDS011;13578;53.450;15.496;2023-02-28T03:31:44;10.05;;;7.53;;
25721;SDS011;13578;53.450;15.496;2023-02-28T03:35:03;12.30;;;8.93;;
25721;SDS011;13578;53.450;15.496;2023-02-28T03:38:11;12.70;;;8.30;;
25721;SDS011;13578;53.450;15.496;2023-02-28T03:41:19;12.10;;;9.57;;
25721;SDS011;13578;53.450;15.496;2023-02-28T03:45:08;9.48;;;7.50;;
25721;SDS011;13578;53.450;15.496;2023-02-28T03:47:59;9.18;;;7.72;;
25721;SDS011;13578;53.450;15.496;2023-02-28T03:51:13;14.32;;;7.95;;
25721;SDS011;13578;53.450;15.496;2023-02-28T03:54:22;9.18;;;8.27;;
25721;SDS011;13578;53.450;15.496;2023-02-28T03:57:37;21.70;;;9.48;;
25721;SDS011;13578;53.450;15.496;2023-02-28T04:00:41;19.08;;;8.48;;
25721;SDS011;13578;53.450;15.496;2023-02-28T04:03:46;22.45;;;9.13;;
25721;SDS011;13578;53.450;15.496;2023-02-28T04:06:49;12.32;;;8.23;;
25721;SDS011;13578;53.450;15.496;2023-02-28T04:09:51;11.82;;;8.82;;
25721;SDS011;13578;53.450;15.496;2023-02-28T04:12:52;11.48;;;8.32;;
25721;SDS011;13578;53.450;15.496;2023-02-28T04:15:52;15.15;;;7.60;;
25721;SDS011;13578;53.450;15.496;2023-02-28T04:18:53;14.90;;;7.32;;
25721;SDS011;13578;53.450;15.496;2023-02-28T04:21:54;14.70;;;8.07;;
25721;SDS011;13578;53.450;15.496;2023-02-28T04:24:55;9.82;;;8.73;;
25721;SDS011;13578;53.450;15.496;2023-02-28T04:27:55;19.70;;;8.15;;
25721;SDS011;13578;53.450;15.496;2023-02-28T04:30:57;9.18;;;8.05;;
25721;SDS011;13578;53.450;15.496;2023-02-28T04:33:59;8.50;;;7.38;;
25721;SDS011;13578;53.450;15.496;2023-02-28T04:37:00;8.63;;;7.75;;
25721;SDS011;13578;53.450;15.496;2023-02-28T04:40:01;11.73;;;8.27;;
25721;SDS011;13578;53.450;15.496;2023-02-28T04:43:02;10.15;;;7.32;;
25721;SDS011;13578;53.450;15.496;2023-02-28T04:46:03;12.00;;;8.30;;
25721;SDS011;13578;53.450;15.496;2023-02-28T04:49:05;14.68;;;9.23;;
25721;SDS011;13578;53.450;15.496;2023-02-28T04:52:05;13.57;;;8.50;;
25721;SDS011;13578;53.450;15.496;2023-02-28T04:55:07;12.82;;;8.85;;
25721;SDS011;13578;53.450;15.496;2023-02-28T04:58:08;11.68;;;8.10;;
25721;SDS011;13578;53.450;15.496;2023-02-28T05:01:23;12.65;;;8.02;;
25721;SDS011;13578;53.450;15.496;2023-02-28T05:04:25;17.27;;;7.97;;
25721;SDS011;13578;53.450;15.496;2023-02-28T05:07:26;13.32;;;9.05;;
25721;SDS011;13578;53.450;15.496;2023-02-28T05:10:27;10.93;;;8.25;;
25721;SDS011;13578;53.450;15.496;2023-02-28T05:13:27;17.17;;;8.23;;
25721;SDS011;13578;53.450;15.496;2023-02-28T05:16:28;16.88;;;9.15;;
25721;SDS011;13578;53.450;15.496;2023-02-28T05:19:29;12.05;;;8.35;;
25721;SDS011;13578;53.450;15.496;2023-02-28T05:22:30;9.38;;;7.70;;
25721;SDS011;13578;53.450;15.496;2023-02-28T05:25:30;9.75;;;7.70;;
25721;SDS011;13578;53.450;15.496;2023-02-28T05:28:31;22.75;;;9.52;;
25721;SDS011;13578;53.450;15.496;2023-02-28T05:31:32;11.18;;;8.23;;
25721;SDS011;13578;53.450;15.496;2023-02-28T05:34:32;12.57;;;8.73;;
25721;SDS011;13578;53.450;15.496;2023-02-28T05:37:33;19.67;;;9.23;;
25721;SDS011;13578;53.450;15.496;2023-02-28T05:40:34;13.65;;;8.82;;
25721;SDS011;13578;53.450;15.496;2023-02-28T05:43:35;19.75;;;9.15;;
25721;SDS011;13578;53.450;15.496;2023-02-28T05:46:37;12.98;;;9.48;;
25721;SDS011;13578;53.450;15.496;2023-02-28T05:49:38;17.70;;;8.95;;
25721;SDS011;13578;53.450;15.496;2023-02-28T05:52:39;17.70;;;9.10;;
25721;SDS011;13578;53.450;15.496;2023-02-28T05:55:39;14.55;;;9.13;;
25721;SDS011;13578;53.450;15.496;2023-02-28T05:58:41;14.75;;;8.77;;
25721;SDS011;13578;53.450;15.496;2023-02-28T06:01:42;16.98;;;8.75;;
25721;SDS011;13578;53.450;15.496;2023-02-28T06:04:51;16.45;;;8.73;;
25721;SDS011;13578;53.450;15.496;2023-02-28T06:07:52;12.70;;;8.68;;
25721;SDS011;13578;53.450;15.496;2023-02-28T06:10:53;15.68;;;9.73;;
25721;SDS011;13578;53.450;15.496;2023-02-28T06:13:57;22.52;;;8.95;;
25721;SDS011;13578;53.450;15.496;2023-02-28T06:17:00;22.48;;;9.27;;
25721;SDS011;13578;53.450;15.496;2023-02-28T06:20:01;30.83;;;10.73;;
25721;SDS011;13578;53.450;15.496;2023-02-28T06:23:02;15.23;;;9.30;;
25721;SDS011;13578;53.450;15.496;2023-02-28T06:26:02;14.48;;;8.85;;
25721;SDS011;13578;53.450;15.496;2023-02-28T06:29:03;21.48;;;9.25;;
25721;SDS011;13578;53.450;15.496;2023-02-28T06:32:03;15.35;;;9.50;;
25721;SDS011;13578;53.450;15.496;2023-02-28T06:35:04;17.17;;;9.82;;
25721;SDS011;13578;53.450;15.496;2023-02-28T06:38:05;25.05;;;9.43;;
25721;SDS011;13578;53.450;15.496;2023-02-28T06:41:06;16.98;;;10.43;;
25721;SDS011;13578;53.450;15.496;2023-02-28T06:44:11;19.30;;;9.90;;
25721;SDS011;13578;53.450;15.496;2023-02-28T06:47:12;14.40;;;10.25;;
25721;SDS011;13578;53.450;15.496;2023-02-28T06:50:13;23.48;;;10.02;;
25721;SDS011;13578;53.450;15.496;2023-02-28T06:53:14;19.42;;;10.75;;
25721;SDS011;13578;53.450;15.496;2023-02-28T06:56:15;23.65;;;10.57;;
25721;SDS011;13578;53.450;15.496;2023-02-28T06:59:16;15.65;;;10.02;;
25721;SDS011;13578;53.450;15.496;2023-02-28T07:02:17;16.85;;;9.88;;
25721;SDS011;13578;53.450;15.496;2023-02-28T07:05:17;19.73;;;10.00;;
25721;SDS011;13578;53.450;15.496;2023-02-28T07:08:18;21.88;;;10.23;;
25721;SDS011;13578;53.450;15.496;2023-02-28T07:11:22;19.85;;;11.02;;
25721;SDS011;13578;53.450;15.496;2023-02-28T07:14:25;23.42;;;10.73;;
25721;SDS011;13578;53.450;15.496;2023-02-28T07:17:26;22.67;;;11.35;;
25721;SDS011;13578;53.450;15.496;2023-02-28T07:20:26;19.27;;;12.25;;
25721;SDS011;13578;53.450;15.496;2023-02-28T07:23:27;23.15;;;13.27;;
25721;SDS011;13578;53.450;15.496;2023-02-28T07:26:27;23.20;;;12.80;;
25721;SDS011;13578;53.450;15.496;2023-02-28T07:29:28;24.42;;;12.45;;
25721;SDS011;13578;53.450;15.496;2023-02-28T07:32:29;25.48;;;11.10;;
25721;SDS011;13578;53.450;15.496;2023-02-28T07:35:30;21.13;;;11.07;;
25721;SDS011;13578;53.450;15.496;2023-02-28T07:38:31;19.17;;;11.20;;
25721;SDS011;13578;53.450;15.496;2023-02-28T07:41:37;27.08;;;11.15;;
25721;SDS011;13578;53.450;15.496;2023-02-28T07:47:43;21.27;;;11.35;;
25721;SDS011;13578;53.450;15.496;2023-02-28T07:50:44;24.42;;;12.73;;
25721;SDS011;13578;53.450;15.496;2023-02-28T07:53:48;18.60;;;11.77;;
25721;SDS011;13578;53.450;15.496;2023-02-28T07:56:48;32.53;;;13.15;;
25721;SDS011;13578;53.450;15.496;2023-02-28T07:59:49;24.23;;;11.85;;
25721;SDS011;13578;53.450;15.496;2023-02-28T08:02:49;22.48;;;12.20;;
25721;SDS011;13578;53.450;15.496;2023-02-28T08:05:51;24.33;;;12.77;;
25721;SDS011;13578;53.450;15.496;2023-02-28T08:08:52;29.58;;;15.52;;
25721;SDS011;13578;53.450;15.496;2023-02-28T08:11:54;26.20;;;14.05;;
25721;SDS011;13578;53.450;15.496;2023-02-28T08:14:54;25.35;;;13.25;;
25721;SDS011;13578;53.450;15.496;2023-02-28T08:17:55;36.00;;;14.50;;
25721;SDS011;13578;53.450;15.496;2023-02-28T08:20:58;29.33;;;13.23;;
25721;SDS011;13578;53.450;15.496;2023-02-28T08:23:59;32.70;;;14.00;;
25721;SDS011;13578;53.450;15.496;2023-02-28T08:26:59;26.67;;;13.90;;
25721;SDS011;13578;53.450;15.496;2023-02-28T08:30:00;40.92;;;16.70;;
25721;SDS011;13578;53.450;15.496;2023-02-28T08:33:00;32.45;;;14.85;;
25721;SDS011;13578;53.450;15.496;2023-02-28T08:36:02;28.27;;;15.00;;
25721;SDS011;13578;53.450;15.496;2023-02-28T08:39:03;27.73;;;14.38;;
25721;SDS011;13578;53.450;15.496;2023-02-28T08:42:04;27.10;;;14.05;;
25721;SDS011;13578;53.450;15.496;2023-02-28T08:45:05;21.45;;;12.40;;
25721;SDS011;13578;53.450;15.496;2023-02-28T08:48:06;18.30;;;9.50;;
25721;SDS011;13578;53.450;15.496;2023-02-28T08:51:07;26.20;;;11.73;;
25721;SDS011;13578;53.450;15.496;2023-02-28T08:54:10;14.88;;;8.57;;
25721;SDS011;13578;53.450;15.496;2023-02-28T09:00:16;12.63;;;7.85;;
25721;SDS011;13578;53.450;15.496;2023-02-28T09:03:17;8.75;;;7.38;;
25721;SDS011;13578;53.450;15.496;2023-02-28T09:06:18;11.13;;;7.68;;
25721;SDS011;13578;53.450;15.496;2023-02-28T09:09:20;14.10;;;6.53;;
25721;SDS011;13578;53.450;15.496;2023-02-28T09:12:21;9.10;;;6.05;;
25721;SDS011;13578;53.450;15.496;2023-02-28T09:15:23;8.50;;;6.35;;
25721;SDS011;13578;53.450;15.496;2023-02-28T09:18:24;10.45;;;6.22;;
25721;SDS011;13578;53.450;15.496;2023-02-28T09:21:26;9.13;;;6.03;;
25721;SDS011;13578;53.450;15.496;2023-02-28T09:24:27;6.82;;;5.20;;
25721;SDS011;13578;53.450;15.496;2023-02-28T09:27:28;15.93;;;6.25;;
25721;SDS011;13578;53.450;15.496;2023-02-28T09:30:28;9.65;;;5.80;;
25721;SDS011;13578;53.450;15.496;2023-02-28T09:33:29;16.55;;;6.10;;
25721;SDS011;13578;53.450;15.496;2023-02-28T09:36:30;7.50;;;4.95;;
25721;SDS011;13578;53.450;15.496;2023-02-28T09:39:31;6.32;;;5.43;;
25721;SDS011;13578;53.450;15.496;2023-02-28T09:42:32;5.63;;;4.57;;
25721;SDS011;13578;53.450;15.496;2023-02-28T09:45:46;6.45;;;4.65;;
25721;SDS011;13578;53.450;15.496;2023-02-28T09:51:58;7.15;;;5.15;;
25721;SDS011;13578;53.450;15.496;2023-02-28T09:55:18;7.50;;;5.45;;
25721;SDS011;13578;53.450;15.496;2023-02-28T09:58:33;8.80;;;4.57;;
25721;SDS011;13578;53.450;15.496;2023-02-28T10:05:05;9.60;;;4.95;;
25721;SDS011;13578;53.450;15.496;2023-02-28T10:08:13;5.78;;;4.85;;
25721;SDS011;13578;53.450;15.496;2023-02-28T10:11:17;5.82;;;4.60;;
25721;SDS011;13578;53.450;15.496;2023-02-28T10:14:28;5.72;;;4.65;;
25721;SDS011;13578;53.450;15.496;2023-02-28T10:17:35;8.05;;;4.25;;
25721;SDS011;13578;53.450;15.496;2023-02-28T10:20:40;6.63;;;4.60;;
25721;SDS011;13578;53.450;15.496;2023-02-28T10:23:42;6.93;;;4.50;;
25721;SDS011;13578;53.450;15.496;2023-02-28T10:26:45;6.05;;;4.75;;
25721;SDS011;13578;53.450;15.496;2023-02-28T10:29:50;7.50;;;4.78;;
25721;SDS011;13578;53.450;15.496;2023-02-28T10:32:56;10.70;;;5.70;;
25721;SDS011;13578;53.450;15.496;2023-02-28T10:35:56;5.97;;;4.28;;
25721;SDS011;13578;53.450;15.496;2023-02-28T10:38:59;7.25;;;3.92;;
25721;SDS011;13578;53.450;15.496;2023-02-28T10:42:00;5.18;;;4.50;;
25721;SDS011;13578;53.450;15.496;2023-02-28T10:45:11;4.88;;;4.25;;
25721;SDS011;13578;53.450;15.496;2023-02-28T10:51:15;7.60;;;4.85;;
25721;SDS011;13578;53.450;15.496;2023-02-28T10:54:19;6.40;;;4.78;;
25721;SDS011;13578;53.450;15.496;2023-02-28T10:57:23;4.70;;;3.67;;
25721;SDS011;13578;53.450;15.496;2023-02-28T11:00:25;6.20;;;3.97;;
25721;SDS011;13578;53.450;15.496;2023-02-28T11:03:34;7.18;;;4.18;;
25721;SDS011;13578;53.450;15.496;2023-02-28T11:06:35;5.22;;;4.43;;
25721;SDS011;13578;53.450;15.496;2023-02-28T11:09:37;5.50;;;4.20;;
25721;SDS011;13578;53.450;15.496;2023-02-28T11:12:40;5.88;;;4.30;;
25721;SDS011;13578;53.450;15.496;2023-02-28T11:15:43;5.22;;;4.72;;
25721;SDS011;13578;53.450;15.496;2023-02-28T11:18:55;12.68;;;6.15;;
25721;SDS011;13578;53.450;15.496;2023-02-28T11:21:59;5.03;;;4.45;;
25721;SDS011;13578;53.450;15.496;2023-02-28T11:25:03;6.20;;;4.55;;
25721;SDS011;13578;53.450;15.496;2023-02-28T11:28:30;7.20;;;4.95;;
25721;SDS011;13578;53.450;15.496;2023-02-28T11:31:32;4.90;;;4.00;;
25721;SDS011;13578;53.450;15.496;2023-02-28T11:34:33;8.48;;;4.47;;
25721;SDS011;13578;53.450;15.496;2023-02-28T11:37:33;7.40;;;4.82;;
25721;SDS011;13578;53.450;15.496;2023-02-28T11:54:09;4.43;;;3.97;;
25721;SDS011;13578;53.450;15.496;2023-02-28T12:07:33;5.72;;;4.43;;
25721;SDS011;13578;53.450;15.496;2023-02-28T12:18:16;6.28;;;4.25;;
25721;SDS011;13578;53.450;15.496;2023-02-28T12:28:03;4.32;;;3.92;;
25721;SDS011;13578;53.450;15.496;2023-02-28T12:31:06;4.38;;;3.67;;
25721;SDS011;13578;53.450;15.496;2023-02-28T12:34:13;4.10;;;3.55;;
25721;SDS011;13578;53.450;15.496;2023-02-28T12:40:56;6.25;;;3.97;;
25721;SDS011;13578;53.450;15.496;2023-02-28T12:44:30;3.80;;;3.50;;
25721;SDS011;13578;53.450;15.496;2023-02-28T12:47:36;13.05;;;3.90;;
25721;SDS011;13578;53.450;15.496;2023-02-28T12:50:40;7.90;;;4.03;;
25721;SDS011;13578;53.450;15.496;2023-02-28T12:57:04;5.20;;;4.22;;
25721;SDS011;13578;53.450;15.496;2023-02-28T13:00:17;6.43;;;4.20;;
25721;SDS011;13578;53.450;15.496;2023-02-28T13:03:41;5.65;;;5.03;;
25721;SDS011;13578;53.450;15.496;2023-02-28T13:09:56;7.07;;;4.72;;
25721;SDS011;13578;53.450;15.496;2023-02-28T13:13:01;6.53;;;4.30;;
25721;SDS011;13578;53.450;15.496;2023-02-28T13:19:10;8.38;;;4.30;;
25721;SDS011;13578;53.450;15.496;2023-02-28T13:38:12;4.10;;;3.63;;
25721;SDS011;13578;53.450;15.496;2023-02-28T13:48:17;6.72;;;4.75;;
25721;SDS011;13578;53.450;15.496;2023-02-28T13:51:53;5.03;;;4.18;;
25721;SDS011;13578;53.450;15.496;2023-02-28T13:54:56;6.65;;;4.80;;
25721;SDS011;13578;53.450;15.496;2023-02-28T13:58:22;9.63;;;4.75;;
25721;SDS011;13578;53.450;15.496;2023-02-28T14:05:24;7.15;;;4.95;;
25721;SDS011;13578;53.450;15.496;2023-02-28T14:08:26;6.25;;;4.35;;
25721;SDS011;13578;53.450;15.496;2023-02-28T14:11:34;8.35;;;5.88;;
25721;SDS011;13578;53.450;15.496;2023-02-28T14:17:37;7.07;;;4.95;;
25721;SDS011;13578;53.450;15.496;2023-02-28T14:20:38;11.10;;;5.18;;
25721;SDS011;13578;53.450;15.496;2023-02-28T14:37:28;11.38;;;5.95;;
25721;SDS011;13578;53.450;15.496;2023-02-28T14:40:33;7.72;;;5.82;;
25721;SDS011;13578;53.450;15.496;2023-02-28T14:43:35;6.03;;;4.47;;
25721;SDS011;13578;53.450;15.496;2023-02-28T14:46:37;7.15;;;4.55;;
25721;SDS011;13578;53.450;15.496;2023-02-28T14:49:43;5.68;;;4.53;;
25721;SDS011;13578;53.450;15.496;2023-02-28T14:52:46;11.65;;;5.80;;
25721;SDS011;13578;53.450;15.496;2023-02-28T14:55:48;9.70;;;4.57;;
25721;SDS011;13578;53.450;15.496;2023-02-28T14:58:54;7.85;;;4.55;;
25721;SDS011;13578;53.450;15.496;2023-02-28T15:08:30;5.32;;;4.20;;
25721;SDS011;13578;53.450;15.496;2023-02-28T15:11:35;40.83;;;16.20;;
25721;SDS011;13578;53.450;15.496;2023-02-28T15:14:38;19.73;;;9.43;;
25721;SDS011;13578;53.450;15.496;2023-02-28T15:17:44;19.90;;;9.20;;
25721;SDS011;13578;53.450;15.496;2023-02-28T15:20:47;15.55;;;7.57;;
25721;SDS011;13578;53.450;15.496;2023-02-28T15:23:54;7.05;;;3.95;;
25721;SDS011;13578;53.450;15.496;2023-02-28T15:27:04;3.80;;;3.00;;
25721;SDS011;13578;53.450;15.496;2023-02-28T15:30:11;3.95;;;3.38;;
25721;SDS011;13578;53.450;15.496;2023-02-28T15:33:21;7.18;;;4.20;;
25721;SDS011;13578;53.450;15.496;2023-02-28T15:36:26;9.73;;;4.63;;
25721;SDS011;13578;53.450;15.496;2023-02-28T15:39:29;5.22;;;3.90;;
25721;SDS011;13578;53.450;15.496;2023-02-28T15:42:30;4.65;;;3.63;;
25721;SDS011;13578;53.450;15.496;2023-02-28T15:45:35;5.10;;;4.18;;
25721;SDS011;13578;53.450;15.496;2023-02-28T15:48:53;6.95;;;4.70;;
25721;SDS011;13578;53.450;15.496;2023-02-28T15:51:58;4.95;;;3.90;;
25721;SDS011;13578;53.450;15.496;2023-02-28T15:55:11;6.63;;;4.88;;
25721;SDS011;13578;53.450;15.496;2023-02-28T15:58:19;6.70;;;4.57;;
25721;SDS011;13578;53.450;15.496;2023-02-28T16:01:25;11.70;;;4.32;;
25721;SDS011;13578;53.450;15.496;2023-02-28T16:04:29;7.68;;;5.00;;
25721;SDS011;13578;53.450;15.496;2023-02-28T16:07:31;13.32;;;5.43;;
25721;SDS011;13578;53.450;15.496;2023-02-28T16:10:33;7.70;;;5.00;;
25721;SDS011;13578;53.450;15.496;2023-02-28T16:13:33;21.85;;;4.60;;
25721;SDS011;13578;53.450;15.496;2023-02-28T16:16:41;6.05;;;4.55;;
25721;SDS011;13578;53.450;15.496;2023-02-28T16:19:43;5.18;;;4.63;;
25721;SDS011;13578;53.450;15.496;2023-02-28T16:22:43;6.43;;;4.47;;
25721;SDS011;13578;53.450;15.496;2023-02-28T16:25:45;8.07;;;4.45;;
25721;SDS011;13578;53.450;15.496;2023-02-28T16:28:46;7.18;;;4.82;;
25721;SDS011;13578;53.450;15.496;2023-02-28T16:31:47;4.97;;;4.13;;
25721;SDS011;13578;53.450;15.496;2023-02-28T16:34:47;9.77;;;5.10;;
25721;SDS011;13578;53.450;15.496;2023-02-28T16:37:49;6.68;;;5.10;;
25721;SDS011;13578;53.450;15.496;2023-02-28T16:40:51;5.97;;;4.78;;
25721;SDS011;13578;53.450;15.496;2023-02-28T16:43:56;4.25;;;3.78;;
25721;SDS011;13578;53.450;15.496;2023-02-28T16:47:00;9.55;;;5.10;;
25721;SDS011;13578;53.450;15.496;2023-02-28T16:50:05;5.95;;;4.43;;
25721;SDS011;13578;53.450;15.496;2023-02-28T16:53:12;6.50;;;4.25;;
25721;SDS011;13578;53.450;15.496;2023-02-28T16:56:14;6.20;;;4.72;;
25721;SDS011;13578;53.450;15.496;2023-02-28T16:59:24;9.00;;;4.25;;
25721;SDS011;13578;53.450;15.496;2023-02-28T17:02:26;7.38;;;4.35;;
25721;SDS011;13578;53.450;15.496;2023-02-28T17:05:28;6.97;;;4.95;;
25721;SDS011;13578;53.450;15.496;2023-02-28T17:08:35;5.97;;;4.63;;
25721;SDS011;13578;53.450;15.496;2023-02-28T17:11:36;8.68;;;4.10;;
25721;SDS011;13578;53.450;15.496;2023-02-28T17:14:37;4.68;;;4.28;;
25721;SDS011;13578;53.450;15.496;2023-02-28T17:17:38;8.27;;;4.97;;
25721;SDS011;13578;53.450;15.496;2023-02-28T17:20:39;6.95;;;4.78;;
25721;SDS011;13578;53.450;15.496;2023-02-28T17:23:42;6.45;;;4.85;;
25721;SDS011;13578;53.450;15.496;2023-02-28T17:26:43;6.63;;;4.50;;
25721;SDS011;13578;53.450;15.496;2023-02-28T17:29:43;5.15;;;4.50;;
25721;SDS011;13578;53.450;15.496;2023-02-28T17:32:44;4.50;;;3.92;;
25721;SDS011;13578;53.450;15.496;2023-02-28T17:35:44;7.03;;;4.40;;
25721;SDS011;13578;53.450;15.496;2023-02-28T17:38:45;8.15;;;4.53;;
25721;SDS011;13578;53.450;15.496;2023-02-28T17:41:45;5.45;;;4.70;;
25721;SDS011;13578;53.450;15.496;2023-02-28T17:44:46;6.32;;;5.45;;
25721;SDS011;13578;53.450;15.496;2023-02-28T17:47:47;9.43;;;4.55;;
25721;SDS011;13578;53.450;15.496;2023-02-28T17:50:50;5.93;;;5.13;;
25721;SDS011;13578;53.450;15.496;2023-02-28T17:53:51;6.43;;;5.38;;
25721;SDS011;13578;53.450;15.496;2023-02-28T17:56:52;8.93;;;5.57;;
25721;SDS011;13578;53.450;15.496;2023-02-28T17:59:53;12.07;;;5.55;;
25721;SDS011;13578;53.450;15.496;2023-02-28T18:02:53;9.68;;;5.85;;
25721;SDS011;13578;53.450;15.496;2023-02-28T18:05:54;7.32;;;5.43;;
25721;SDS011;13578;53.450;15.496;2023-02-28T18:08:56;5.63;;;4.85;;
25721;SDS011;13578;53.450;15.496;2023-02-28T18:11:57;5.10;;;4.70;;
25721;SDS011;13578;53.450;15.496;2023-02-28T18:14:58;6.38;;;5.03;;
25721;SDS011;13578;53.450;15.496;2023-02-28T18:17:58;12.20;;;5.53;;
25721;SDS011;13578;53.450;15.496;2023-02-28T18:20:59;7.95;;;5.90;;
25721;SDS011;13578;53.450;15.496;2023-02-28T18:24:00;7.47;;;5.63;;
25721;SDS011;13578;53.450;15.496;2023-02-28T18:27:01;5.75;;;5.07;;
25721;SDS011;13578;53.450;15.496;2023-02-28T18:30:02;11.27;;;6.68;;
25721;SDS011;13578;53.450;15.496;2023-02-28T18:33:04;9.13;;;6.40;;
25721;SDS011;13578;53.450;15.496;2023-02-28T18:36:04;8.93;;;6.05;;
25721;SDS011;13578;53.450;15.496;2023-02-28T18:39:07;11.77;;;6.97;;
25721;SDS011;13578;53.450;15.496;2023-02-28T18:42:08;16.38;;;9.18;;
25721;SDS011;13578;53.450;15.496;2023-02-28T18:45:09;17.80;;;8.25;;
25721;SDS011;13578;53.450;15.496;2023-02-28T18:48:10;23.63;;;10.00;;
25721;SDS011;13578;53.450;15.496;2023-02-28T18:51:14;25.25;;;10.57;;
25721;SDS011;13578;53.450;15.496;2023-02-28T18:54:17;14.95;;;7.65;;
25721;SDS011;13578;53.450;15.496;2023-02-28T18:57:18;18.27;;;8.30;;
25721;SDS011;13578;53.450;15.496;2023-02-28T19:00:18;22.52;;;9.73;;
25721;SDS011;13578;53.450;15.496;2023-02-28T19:03:21;17.00;;;9.40;;
25721;SDS011;13578;53.450;15.496;2023-02-28T19:06:22;9.95;;;5.95;;
25721;SDS011;13578;53.450;15.496;2023-02-28T19:09:23;8.15;;;6.70;;
25721;SDS011;13578;53.450;15.496;2023-02-28T19:12:23;8.02;;;6.53;;
25721;SDS011;13578;53.450;15.496;2023-02-28T19:15:24;10.85;;;6.57;;
25721;SDS011;13578;53.450;15.496;2023-02-28T19:18:24;9.00;;;6.85;;
25721;SDS011;13578;53.450;15.496;2023-02-28T19:21:25;13.25;;;7.60;;
25721;SDS011;13578;53.450;15.496;2023-02-28T19:24:27;17.08;;;9.43;;
25721;SDS011;13578;53.450;15.496;2023-02-28T19:27:28;20.08;;;11.30;;
25721;SDS011;13578;53.450;15.496;2023-02-28T19:30:29;25.58;;;12.18;;
25721;SDS011;13578;53.450;15.496;2023-02-28T19:33:30;20.98;;;10.40;;
25721;SDS011;13578;53.450;15.496;2023-02-28T19:36:31;23.88;;;9.52;;
25721;SDS011;13578;53.450;15.496;2023-02-28T19:39:32;15.32;;;8.75;;
25721;SDS011;13578;53.450;15.496;2023-02-28T19:42:40;16.77;;;8.00;;
25721;SDS011;13578;53.450;15.496;2023-02-28T19:45:40;16.75;;;8.27;;
25721;SDS011;13578;53.450;15.496;2023-02-28T19:48:41;19.73;;;8.02;;
25721;SDS011;13578;53.450;15.496;2023-02-28T19:51:43;17.13;;;9.73;;
25721;SDS011;13578;53.450;15.496;2023-02-28T19:54:44;16.05;;;9.15;;
25721;SDS011;13578;53.450;15.496;2023-02-28T19:57:44;16.17;;;9.48;;
25721;SDS011;13578;53.450;15.496;2023-02-28T20:00:45;14.13;;;7.45;;
25721;SDS011;13578;53.450;15.496;2023-02-28T20:03:46;16.40;;;9.55;;
25721;SDS011;13578;53.450;15.496;2023-02-28T20:06:48;18.40;;;8.70;;
25721;SDS011;13578;53.450;15.496;2023-02-28T20:09:49;14.30;;;9.10;;
25721;SDS011;13578;53.450;15.496;2023-02-28T20:12:50;20.05;;;9.35;;
25721;SDS011;13578;53.450;15.496;2023-02-28T20:15:50;26.15;;;12.13;;
25721;SDS011;13578;53.450;15.496;2023-02-28T20:18:51;39.92;;;15.35;;
25721;SDS011;13578;53.450;15.496;2023-02-28T20:21:51;35.40;;;14.98;;
25721;SDS011;13578;53.450;15.496;2023-02-28T20:24:52;23.23;;;10.55;;
25721;SDS011;13578;53.450;15.496;2023-02-28T20:27:53;20.63;;;11.35;;